Serra do Ramalho, Brazil
Current Conditions -  °F | °C
As of 8:00 AM on Saturday 01 Nov 2014 (Local Time) from SBQV Reporting Station
Broken Clouds Broken Clouds  
Wind Chill: 70°   Ceiling: 1500
Heat Index: 70°   Visibility: 6mi
Dew Point: 63°   Wind: 10mph
Humidity: 78%   Direction: 100°E
Pressure: 30.18"   Gusts: NA
Location:  13.56°S, 43.6°W
Report Text: SBQV 011100Z 10009KT 9999 BKN015 21/17 Q1022
Loading
Personal Weather Stations






























Interactive Weather Map
Tropical Storm Tracking
New forecast layout! Learn more

10-Day Weather Forecast

Advertisements
Track Severe Weather on mobile